createdAt,value
2022-12-27T00:02:24.903Z,97907.78
2022-12-27T00:04:51.558Z,97913.91
2022-12-27T00:07:18.118Z,97914.97
2022-12-27T00:09:45.025Z,97928.03
2022-12-27T00:12:11.774Z,97925.72
2022-12-27T00:14:38.351Z,97927.97
2022-12-27T00:17:07.126Z,97934.47
2022-12-27T00:19:33.667Z,97928.66
2022-12-27T00:22:05.310Z,97938.25
2022-12-27T00:24:35.393Z,97947.06
2022-12-27T00:27:02.011Z,97957.44
2022-12-27T00:29:28.612Z,97955.50
2022-12-27T00:31:57.859Z,97957.06
2022-12-27T00:34:24.609Z,97961.66
2022-12-27T00:36:53.551Z,97967.06
2022-12-27T00:39:20.321Z,97972.09
2022-12-27T00:41:46.906Z,97965.59
2022-12-27T00:44:13.465Z,97966.38
2022-12-27T00:46:42.415Z,97967.91
2022-12-27T00:49:09.140Z,97969.88
2022-12-27T00:51:36.691Z,97957.56
2022-12-27T00:54:03.416Z,97959.13
2022-12-27T00:56:31.048Z,97966.84
2022-12-27T00:59:00.425Z,97969.91
2022-12-27T01:01:29.934Z,97973.00
2022-12-27T01:03:57.965Z,97969.91
2022-12-27T01:06:29.346Z,97976.50
2022-12-27T01:08:56.944Z,97979.25
2022-12-27T01:11:29.637Z,97978.09
2022-12-27T01:14:00.903Z,97987.34
2022-12-27T01:16:29.847Z,97989.69
2022-12-27T01:18:56.877Z,97994.28
2022-12-27T01:21:25.422Z,98002.41
2022-12-27T01:23:52.475Z,97997.00
2022-12-27T01:26:22.801Z,97997.00
2022-12-27T01:28:50.470Z,97997.00
2022-12-27T01:31:21.284Z,97994.69
2022-12-27T01:33:48.488Z,97999.28
2022-12-27T01:36:18.431Z,98000.81
2022-12-27T01:38:47.986Z,98012.69
2022-12-27T01:41:36.442Z,98013.44
2022-12-27T01:44:49.763Z,98012.34
2022-12-27T01:47:35.233Z,98010.41
2022-12-27T01:50:36.345Z,98012.03
2022-12-27T01:53:12.080Z,98013.53
2022-12-27T01:55:48.001Z,98015.09
2022-12-27T01:58:43.165Z,98031.63
2022-12-27T02:01:16.366Z,98021.19
2022-12-27T02:03:56.922Z,98032.00
2022-12-27T02:06:26.035Z,98029.22
2022-12-27T02:09:16.844Z,98029.63
2022-12-27T02:11:56.344Z,98038.06
2022-12-27T02:14:31.754Z,98040.72
2022-12-27T02:17:04.464Z,98049.53
2022-12-27T02:19:49.963Z,98052.63
2022-12-27T02:23:05.878Z,98058.72
2022-12-27T02:25:50.787Z,98077.25
2022-12-27T02:28:48.501Z,98075.31
2022-12-27T02:31:24.929Z,98068.03
2022-12-27T02:33:53.286Z,98069.06
2022-12-27T02:36:33.537Z,98064.09
2022-12-27T02:39:02.926Z,98067.59
2022-12-27T02:41:51.696Z,98067.22
2022-12-27T02:44:37.897Z,98056.63
2022-12-27T02:47:36.849Z,98060.91
2022-12-27T02:50:22.660Z,98072.38
2022-12-27T02:53:09.867Z,98067.63
2022-12-27T02:56:10.383Z,98076.50
2022-12-27T02:58:48.573Z,98077.97
2022-12-27T03:01:49.078Z,98084.91
2022-12-27T03:04:33.021Z,98080.25
2022-12-27T03:07:27.431Z,98084.66
2022-12-27T03:11:03.860Z,98092.47
2022-12-27T03:14:02.904Z,98095.59
2022-12-27T03:16:59.808Z,98088.47
2022-12-27T03:19:55.546Z,98092.81
2022-12-27T03:22:47.432Z,98087.50
2022-12-27T03:25:35.783Z,98092.13
2022-12-27T03:28:28.676Z,98094.25
2022-12-27T03:31:22.494Z,98088.88
2022-12-27T03:33:50.335Z,98094.09
2022-12-27T03:36:39.737Z,98086.97
2022-12-27T03:39:19.293Z,98080.13
2022-12-27T03:42:11.790Z,98091.75
2022-12-27T03:44:39.411Z,98096.38
2022-12-27T03:47:40.662Z,98095.28
2022-12-27T03:50:15.366Z,98093.84
2022-12-27T03:52:55.894Z,98101.56
2022-12-27T03:55:28.437Z,98095.03
2022-12-27T03:57:58.250Z,98098.13
2022-12-27T04:00:24.880Z,98097.31
2022-12-27T04:02:53.923Z,98100.22
2022-12-27T04:05:22.994Z,98091.25
2022-12-27T04:08:08.242Z,98096.34
2022-12-27T04:10:55.911Z,98105.25
2022-12-27T04:13:43.354Z,98104.59
2022-12-27T04:16:30.985Z,98094.69
2022-12-27T04:19:16.637Z,98090.00
2022-12-27T04:22:01.913Z,98085.97
2022-12-27T04:24:49.950Z,98090.25
2022-12-27T04:27:35.162Z,98090.31
2022-12-27T04:30:20.450Z,98081.88
2022-12-27T04:33:05.699Z,98091.44
2022-12-27T04:35:32.271Z,98088.03
2022-12-27T04:38:01.106Z,98091.50
2022-12-27T04:40:48.437Z,98091.16
2022-12-27T04:43:33.730Z,98089.25
2022-12-27T04:46:21.515Z,98097.25
2022-12-27T04:49:06.731Z,98088.41
2022-12-27T04:51:51.819Z,98091.81
2022-12-27T04:54:42.785Z,98088.69
2022-12-27T04:57:09.534Z,98098.31
2022-12-27T04:59:54.937Z,98088.34
2022-12-27T05:02:21.669Z,98085.19
2022-12-27T05:04:51.185Z,98088.28
2022-12-27T05:07:36.329Z,98095.25
2022-12-27T05:10:23.732Z,98095.28
2022-12-27T05:13:11.352Z,98098.69
2022-12-27T05:15:37.913Z,98101.00
2022-12-27T05:18:07.054Z,98099.75
2022-12-27T05:20:35.159Z,98104.28
2022-12-27T05:23:22.914Z,98102.38
2022-12-27T05:25:49.489Z,98107.41
2022-12-27T05:28:18.376Z,98102.91
2022-12-27T05:30:49.900Z,98118.28
2022-12-27T05:33:16.496Z,98117.16
2022-12-27T05:35:45.201Z,98117.94
2022-12-27T05:38:14.264Z,98112.94
2022-12-27T05:40:40.830Z,98120.25
2022-12-27T05:43:09.438Z,98122.94
2022-12-27T05:45:36.102Z,98124.00
2022-12-27T05:48:05.105Z,98120.97
2022-12-27T05:50:34.600Z,98120.97
2022-12-27T05:53:01.205Z,98122.72
2022-12-27T05:55:27.741Z,98130.88
2022-12-27T05:57:54.586Z,98128.59
2022-12-27T06:00:21.289Z,98137.47
2022-12-27T06:02:50.938Z,98139.06
2022-12-27T06:05:17.677Z,98137.16
2022-12-27T06:07:48.783Z,98136.78
2022-12-27T06:10:17.685Z,98131.03
2022-12-27T06:12:46.801Z,98127.94
2022-12-27T06:15:15.552Z,98135.44
2022-12-27T06:17:43.886Z,98138.13
2022-12-27T06:20:10.915Z,98129.69
2022-12-27T06:22:37.473Z,98137.72
2022-12-27T06:25:12.380Z,98139.75
2022-12-27T06:27:41.817Z,98137.38
2022-12-27T06:30:10.812Z,98134.25
2022-12-27T06:32:39.521Z,98140.69
2022-12-27T06:35:09.009Z,98149.13
2022-12-27T06:37:35.592Z,98152.25
2022-12-27T06:40:02.169Z,98143.75
2022-12-27T06:42:32.325Z,98149.91
2022-12-27T06:44:59.007Z,98139.28
2022-12-27T06:47:25.557Z,98144.56
2022-12-27T06:49:52.215Z,98151.38
2022-12-27T06:52:23.173Z,98152.81
2022-12-27T06:54:52.457Z,98149.06
2022-12-27T06:57:19.181Z,98144.47
2022-12-27T06:59:49.516Z,98150.19
2022-12-27T07:02:20.554Z,98139.56
2022-12-27T07:04:52.002Z,98151.47
2022-12-27T07:07:18.587Z,98157.34
2022-12-27T07:09:45.320Z,98151.59
2022-12-27T07:12:14.064Z,98154.88
2022-12-27T07:14:43.677Z,98161.88
2022-12-27T07:17:10.301Z,98157.16
2022-12-27T07:19:39.153Z,98165.13
2022-12-27T07:22:05.888Z,98166.25
2022-12-27T07:24:33.437Z,98177.47
2022-12-27T07:27:04.945Z,98179.88
2022-12-27T07:29:33.738Z,98187.97
2022-12-27T07:32:00.274Z,98195.75
2022-12-27T07:34:29.183Z,98199.00
2022-12-27T07:36:55.844Z,98207.22
2022-12-27T07:39:25.370Z,98198.72
2022-12-27T07:41:54.121Z,98191.47
2022-12-27T07:44:23.212Z,98195.53
2022-12-27T07:46:50.077Z,98185.75
2022-12-27T07:49:19.022Z,98191.13
2022-12-27T07:51:47.956Z,98201.47
2022-12-27T07:54:14.516Z,98200.34
2022-12-27T07:56:43.120Z,98197.44
2022-12-27T07:59:13.192Z,98200.34
2022-12-27T08:01:58.360Z,98190.22
2022-12-27T08:04:27.230Z,98193.41
2022-12-27T08:06:56.645Z,98194.69
2022-12-27T08:09:31.122Z,98190.84
2022-12-27T08:11:57.715Z,98199.34
2022-12-27T08:14:24.510Z,98198.56
2022-12-27T08:16:51.381Z,98197.94
2022-12-27T08:19:18.020Z,98200.28
2022-12-27T08:21:46.790Z,98207.19
2022-12-27T08:24:15.648Z,98195.72
2022-12-27T08:26:44.445Z,98203.59
2022-12-27T08:29:13.316Z,98201.97
2022-12-27T08:31:39.970Z,98197.88
2022-12-27T08:34:06.788Z,98195.84
2022-12-27T08:36:54.623Z,98196.13
2022-12-27T08:39:26.857Z,98204.16
2022-12-27T08:41:54.314Z,98204.38
2022-12-27T08:44:21.031Z,98203.84
2022-12-27T08:46:47.665Z,98204.31
2022-12-27T08:49:14.295Z,98199.00
2022-12-27T08:51:41.710Z,98214.47
2022-12-27T08:54:09.233Z,98223.44
2022-12-27T08:56:38.159Z,98223.69
2022-12-27T08:59:09.501Z,98233.53
2022-12-27T09:01:36.131Z,98227.22
2022-12-27T09:04:02.842Z,98226.47
2022-12-27T09:06:31.853Z,98225.84
2022-12-27T09:09:01.513Z,98231.28
2022-12-27T09:11:35.159Z,98222.06
2022-12-27T09:14:07.770Z,98221.88
2022-12-27T09:16:39.677Z,98222.19
2022-12-27T09:19:06.239Z,98213.09
2022-12-27T09:21:35.373Z,98228.03
2022-12-27T09:24:04.570Z,98226.75
2022-12-27T09:26:31.163Z,98228.03
2022-12-27T09:29:00.622Z,98226.59
2022-12-27T09:31:28.180Z,98219.44
2022-12-27T09:33:58.012Z,98218.75
2022-12-27T09:36:27.366Z,98223.84
2022-12-27T09:38:55.630Z,98229.97
2022-12-27T09:42:11.716Z,98226.16
2022-12-27T09:44:24.322Z,98229.25
2022-12-27T09:46:59.022Z,98222.44
2022-12-27T09:49:39.644Z,98217.53
2022-12-27T09:52:54.998Z,98221.84
2022-12-27T09:55:33.156Z,98224.69
2022-12-27T09:58:19.549Z,98209.06
2022-12-27T10:00:46.631Z,98214.81
2022-12-27T10:03:15.935Z,98210.06
2022-12-27T10:05:53.194Z,98207.94
2022-12-27T10:08:48.150Z,98196.84
2022-12-27T10:11:34.621Z,98206.94
2022-12-27T10:14:46.194Z,98201.25
2022-12-27T10:17:29.385Z,98199.41
2022-12-27T10:20:04.714Z,98200.03
2022-12-27T10:22:41.284Z,98188.97
2022-12-27T10:25:17.277Z,98185.38
2022-12-27T10:27:45.565Z,98185.38
2022-12-27T10:30:21.496Z,98184.56
2022-12-27T10:32:49.199Z,98187.53
2022-12-27T10:35:18.186Z,98190.50
2022-12-27T10:37:48.715Z,98186.34
2022-12-27T10:40:20.837Z,98177.59
2022-12-27T10:43:00.059Z,98177.25
2022-12-27T10:45:36.183Z,98168.91
2022-12-27T10:48:47.387Z,98176.75
2022-12-27T10:51:18.408Z,98171.38
2022-12-27T10:53:48.284Z,98169.09
2022-12-27T10:56:35.283Z,98176.09
2022-12-27T10:59:07.749Z,98172.47
2022-12-27T11:01:34.934Z,98165.00
2022-12-27T11:04:20.991Z,98163.56
2022-12-27T11:07:13.659Z,98167.28
2022-12-27T11:09:51.008Z,98176.53
2022-12-27T11:12:28.696Z,98182.16
2022-12-27T11:15:03.634Z,98184.47
2022-12-27T11:17:30.232Z,98183.41
2022-12-27T11:20:00.969Z,98174.63
2022-12-27T11:22:27.720Z,98165.91
2022-12-27T11:24:59.268Z,98166.88
2022-12-27T11:27:28.738Z,98171.59
2022-12-27T11:30:01.882Z,98169.50
2022-12-27T11:32:28.566Z,98166.31
2022-12-27T11:34:58.560Z,98166.31
2022-12-27T11:37:26.994Z,98160.56
2022-12-27T11:40:22.494Z,98148.81
2022-12-27T11:42:58.130Z,98146.94
2022-12-27T11:45:34.476Z,98145.78
2022-12-27T11:48:05.945Z,98147.19
2022-12-27T11:50:51.563Z,98148.41
2022-12-27T11:53:49.793Z,98146.94
2022-12-27T11:56:27.118Z,98135.63
2022-12-27T11:59:37.186Z,98142.41
2022-12-27T12:02:25.019Z,98139.47
2022-12-27T12:05:12.024Z,98140.44
2022-12-27T12:07:45.078Z,98135.38
2022-12-27T12:10:35.467Z,98136.56
2022-12-27T12:13:10.988Z,98127.81
2022-12-27T12:16:06.905Z,98124.91
2022-12-27T12:18:42.453Z,98128.13
2022-12-27T12:21:30.756Z,98135.22
2022-12-27T12:24:12.169Z,98125.72
2022-12-27T12:27:11.029Z,98127.63
2022-12-27T12:29:59.156Z,98124.44
2022-12-27T12:32:50.278Z,98132.16
2022-12-27T12:35:54.072Z,98131.03
2022-12-27T12:38:30.197Z,98122.94
2022-12-27T12:41:17.987Z,98132.22
2022-12-27T12:43:50.140Z,98117.34
2022-12-27T12:46:38.516Z,98116.25
2022-12-27T12:49:20.237Z,98114.88
2022-12-27T12:51:57.134Z,98112.63
2022-12-27T12:54:31.742Z,98115.78
2022-12-27T12:57:42.597Z,98115.31
2022-12-27T13:00:25.094Z,98116.16
2022-12-27T13:03:10.249Z,98118.72
2022-12-27T13:06:15.092Z,98112.13
2022-12-27T13:09:17.014Z,98107.56
2022-12-27T13:12:07.584Z,98106.38
2022-12-27T13:15:13.579Z,98103.72
2022-12-27T13:17:59.712Z,98105.78
2022-12-27T13:21:09.750Z,98109.66
2022-12-27T13:23:56.554Z,98108.66
2022-12-27T13:27:01.260Z,98116.34
2022-12-27T13:29:37.827Z,98115.19
2022-12-27T13:32:23.110Z,98123.28
2022-12-27T13:35:24.521Z,98121.72
2022-12-27T13:38:05.937Z,98117.06
2022-12-27T13:40:59.207Z,98121.25
2022-12-27T13:43:34.920Z,98119.69
2022-12-27T13:46:42.338Z,98121.91
2022-12-27T13:49:34.472Z,98117.34
2022-12-27T13:52:17.594Z,98114.53
2022-12-27T13:54:56.275Z,98116.50
2022-12-27T13:58:07.960Z,98118.41
2022-12-27T14:01:12.830Z,98121.13
2022-12-27T14:03:54.756Z,98128.78
2022-12-27T14:06:36.454Z,98121.13
2022-12-27T14:09:08.862Z,98116.09
2022-12-27T14:11:41.416Z,98111.09
2022-12-27T14:14:12.695Z,98112.97
2022-12-27T14:16:48.097Z,98116.84
2022-12-27T14:19:37.298Z,98126.47
2022-12-27T14:22:36.796Z,98131.84
2022-12-27T14:25:24.939Z,98125.31
2022-12-27T14:28:33.523Z,98133.84
2022-12-27T14:31:13.969Z,98132.09
2022-12-27T14:33:43.428Z,98135.13
2022-12-27T14:36:25.202Z,98132.44
2022-12-27T14:39:15.276Z,98135.13
2022-12-27T14:42:03.542Z,98130.03
2022-12-27T14:44:54.406Z,98126.63
2022-12-27T14:47:48.541Z,98129.72
2022-12-27T14:50:55.334Z,98120.94
2022-12-27T14:53:49.513Z,98117.50
2022-12-27T14:56:51.665Z,98125.41
2022-12-27T14:59:24.745Z,98121.94
2022-12-27T15:02:21.872Z,98125.34
2022-12-27T15:05:13.352Z,98116.13
2022-12-27T15:08:01.299Z,98121.94
2022-12-27T15:11:12.782Z,98122.19
2022-12-27T15:14:10.963Z,98126.47
2022-12-27T15:17:25.505Z,98120.28
2022-12-27T15:19:54.333Z,98124.47
2022-12-27T15:22:23.722Z,98127.53
2022-12-27T15:24:59.012Z,98122.13
2022-12-27T15:27:54.503Z,98117.03
2022-12-27T15:30:31.226Z,98114.75
2022-12-27T15:33:16.108Z,98112.41
2022-12-27T15:36:07.372Z,98108.16
2022-12-27T15:38:53.529Z,98109.72
2022-12-27T15:41:27.157Z,98102.41
2022-12-27T15:44:11.682Z,98102.69
2022-12-27T15:47:10.780Z,98096.16
2022-12-27T15:49:54.711Z,98088.06
2022-12-27T15:53:08.771Z,98082.28
2022-12-27T15:56:12.494Z,98081.91
2022-12-27T15:58:44.999Z,98082.00
2022-12-27T16:01:25.250Z,98079.19
2022-12-27T16:03:53.685Z,98081.91
2022-12-27T16:06:35.780Z,98078.75
2022-12-27T16:09:25.406Z,98077.13
2022-12-27T16:12:09.576Z,98077.41
2022-12-27T16:14:39.138Z,98087.47
2022-12-27T16:17:11.720Z,98087.91
2022-12-27T16:19:57.947Z,98088.25
2022-12-27T16:22:34.106Z,98083.22
2022-12-27T16:25:20.738Z,98081.31
2022-12-27T16:28:01.675Z,98074.78
2022-12-27T16:30:45.324Z,98077.81
2022-12-27T16:33:28.513Z,98076.31
2022-12-27T16:36:19.214Z,98074.00
2022-12-27T16:38:46.105Z,98063.22
2022-12-27T16:41:25.789Z,98055.91
2022-12-27T16:44:01.457Z,98059.38
2022-12-27T16:46:55.505Z,98048.03
2022-12-27T16:49:40.892Z,98052.91
2022-12-27T16:52:13.584Z,98054.31
2022-12-27T16:54:48.340Z,98057.25
2022-12-27T16:57:26.361Z,98055.19
2022-12-27T17:00:37.011Z,98056.38
2022-12-27T17:03:21.415Z,98052.75
2022-12-27T17:08:46.814Z,98050.28
2022-12-27T17:11:26.508Z,98057.19
2022-12-27T17:14:11.547Z,98064.06
2022-12-27T17:16:47.502Z,98056.66
2022-12-27T17:19:33.061Z,98061.38
2022-12-27T17:22:06.400Z,98059.16
2022-12-27T17:24:33.077Z,98062.97
2022-12-27T17:27:08.676Z,98059.63
2022-12-27T17:29:41.306Z,98069.16
2022-12-27T17:32:28.911Z,98071.38
2022-12-27T17:35:29.152Z,98078.59
2022-12-27T17:38:23.827Z,98075.00
2022-12-27T17:42:02.895Z,98074.34
2022-12-27T17:44:47.188Z,98065.06
2022-12-27T17:47:40.691Z,98059.88
2022-12-27T17:50:15.135Z,98046.00
2022-12-27T17:53:00.261Z,98051.81
2022-12-27T17:55:47.889Z,98046.72
2022-12-27T17:58:18.912Z,98040.97
2022-12-27T18:00:57.242Z,98030.63
2022-12-27T18:03:30.471Z,98034.34
2022-12-27T18:05:57.158Z,98034.34
2022-12-27T18:08:29.616Z,98032.44
2022-12-27T18:10:58.323Z,98030.09
2022-12-27T18:13:27.467Z,98035.63
2022-12-27T18:15:54.917Z,98030.59
2022-12-27T18:18:34.342Z,98027.34
2022-12-27T18:21:04.226Z,98029.50
2022-12-27T18:23:41.245Z,98027.34
2022-12-27T18:26:15.808Z,98022.25
2022-12-27T18:28:45.552Z,98030.41
2022-12-27T18:31:35.279Z,98032.69
2022-12-27T18:34:26.775Z,98044.56
2022-12-27T18:37:02.804Z,98036.06
2022-12-27T18:39:34.917Z,98034.22
2022-12-27T18:42:06.002Z,98031.25
2022-12-27T18:44:44.000Z,98020.56
2022-12-27T18:47:19.222Z,98020.03
2022-12-27T18:49:46.799Z,98011.16
2022-12-27T18:52:25.742Z,98014.66
2022-12-27T18:54:52.798Z,98009.94
2022-12-27T18:57:32.673Z,98018.69
2022-12-27T19:00:19.738Z,98016.78
2022-12-27T19:02:46.539Z,98022.84
2022-12-27T19:05:20.871Z,98019.91
2022-12-27T19:07:51.665Z,98020.59
2022-12-27T19:10:21.873Z,98024.13
2022-12-27T19:12:53.873Z,98021.88
2022-12-27T19:15:28.635Z,98027.72
2022-12-27T19:18:04.547Z,98019.69
2022-12-27T19:20:34.845Z,98022.66
2022-12-27T19:23:28.602Z,98023.00
2022-12-27T19:26:18.236Z,98013.47
2022-12-27T19:28:46.227Z,98017.28
2022-12-27T19:31:21.982Z,98020.25
2022-12-27T19:33:59.224Z,98018.69
2022-12-27T19:36:48.076Z,98018.69
2022-12-27T19:39:22.568Z,98022.13
2022-12-27T19:41:50.002Z,98017.47
2022-12-27T19:44:17.080Z,98007.34
2022-12-27T19:46:43.912Z,98012.09
2022-12-27T19:52:00.163Z,98004.22
2022-12-27T19:54:30.622Z,98007.75
2022-12-27T19:56:59.751Z,97994.00
2022-12-27T19:59:28.698Z,98009.75
2022-12-27T20:01:55.387Z,98002.13
2022-12-27T20:04:22.107Z,97994.06
2022-12-27T20:06:51.714Z,97986.72
2022-12-27T20:09:24.033Z,97993.22
2022-12-27T20:11:50.630Z,97988.66
2022-12-27T20:14:19.953Z,97992.25
2022-12-27T20:16:47.677Z,97995.81
2022-12-27T20:19:16.644Z,97995.13
2022-12-27T20:21:43.207Z,97992.88
2022-12-27T20:24:12.354Z,97989.94
2022-12-27T20:26:44.470Z,97991.59
2022-12-27T20:29:12.543Z,97998.66
2022-12-27T20:31:44.514Z,97990.81
2022-12-27T20:34:12.552Z,97983.97
2022-12-27T20:36:39.282Z,97971.84
2022-12-27T20:39:07.276Z,97974.84
2022-12-27T20:41:36.533Z,97973.47
2022-12-27T20:44:05.934Z,97968.16
2022-12-27T20:46:37.245Z,97961.78
2022-12-27T20:49:03.826Z,97964.53
2022-12-27T20:51:35.123Z,97962.91
2022-12-27T20:54:07.998Z,97960.31
2022-12-27T20:56:35.272Z,97959.22
2022-12-27T20:59:04.338Z,97967.00
2022-12-27T21:01:34.050Z,97967.25
2022-12-27T21:04:02.956Z,97966.50
2022-12-27T21:06:29.867Z,97967.06
2022-12-27T21:08:58.421Z,97963.38
2022-12-27T21:11:32.344Z,97955.75
2022-12-27T21:14:03.359Z,97955.94
2022-12-27T21:16:32.504Z,97960.19
2022-12-27T21:19:05.140Z,97963.72
2022-12-27T21:21:34.440Z,97963.47
2022-12-27T21:24:06.000Z,97959.38
2022-12-27T21:26:38.197Z,97950.28
2022-12-27T21:29:08.326Z,97947.78
2022-12-27T21:31:40.887Z,97950.09
2022-12-27T21:34:07.973Z,97963.97
2022-12-27T21:36:35.738Z,97960.50
2022-12-27T21:39:05.532Z,97956.84
2022-12-27T21:41:34.528Z,97953.13
2022-12-27T21:44:03.609Z,97957.38
2022-12-27T21:46:33.239Z,97949.31
2022-12-27T21:49:04.615Z,97954.34
2022-12-27T21:51:32.803Z,97954.75
2022-12-27T21:54:02.921Z,97957.44
2022-12-27T21:56:32.393Z,97952.06
2022-12-27T21:59:04.557Z,97955.56
2022-12-27T22:01:51.572Z,97956.69
2022-12-27T22:04:21.037Z,97958.94
2022-12-27T22:06:48.150Z,97964.88
2022-12-27T22:09:15.402Z,97947.41
2022-12-27T22:11:46.746Z,97960.31
2022-12-27T22:14:15.690Z,97956.50
2022-12-27T22:16:42.231Z,97949.22
2022-12-27T22:19:13.880Z,97947.66
2022-12-27T22:21:43.992Z,97945.03
2022-12-27T22:24:15.472Z,97953.91
2022-12-27T22:26:44.378Z,97940.41
2022-12-27T22:29:12.068Z,97953.13
2022-12-27T22:31:42.643Z,97950.78
2022-12-27T22:34:09.233Z,97951.19
2022-12-27T22:36:36.325Z,97955.16
2022-12-27T22:39:05.864Z,97950.22
2022-12-27T22:41:34.681Z,97952.69
2022-12-27T22:44:10.280Z,97950.22
2022-12-27T22:49:34.895Z,97938.47
2022-12-27T22:52:03.692Z,97955.28
2022-12-27T22:55:05.719Z,97943.75
2022-12-27T22:57:19.149Z,97945.75
2022-12-27T22:59:45.746Z,97958.94
2022-12-27T23:02:14.478Z,97950.00
2022-12-27T23:04:41.446Z,97955.03
2022-12-27T23:07:10.296Z,97949.91
2022-12-27T23:09:43.184Z,97948.63
2022-12-27T23:12:10.229Z,97956.50
2022-12-27T23:14:36.790Z,97943.94
2022-12-27T23:17:05.605Z,97952.97
2022-12-27T23:19:37.003Z,97946.88
2022-12-27T23:22:08.837Z,97944.28
2022-12-27T23:24:38.125Z,97948.44
2022-12-27T23:27:07.716Z,97946.19
2022-12-27T23:29:34.296Z,97944.84
2022-12-27T23:32:00.968Z,97928.47
2022-12-27T23:34:28.906Z,97932.03
2022-12-27T23:36:58.352Z,97935.31
2022-12-27T23:39:27.977Z,97920.00
2022-12-27T23:41:57.173Z,97924.03
2022-12-27T23:44:34.519Z,97926.78
2022-12-27T23:47:05.424Z,97923.72
2022-12-27T23:49:32.272Z,97923.78
2022-12-27T23:52:03.810Z,97917.31
2022-12-27T23:54:30.524Z,97917.03
2022-12-27T23:57:19.460Z,97919.44
2022-12-27T23:59:46.010Z,97912.41
